Time;durP1;ratioP1;P1;durP2;ratioP2;P2;SDS_P1;SDS_P2;PMS_P1;PMS_P2;Temp;Humidity;BMP_temperature;BMP_pressure;BME280_temperature;BME280_humidity;BME280_pressure;Samples;Min_cycle;Max_cycle;Signal;HPM_P1;HPM_P2
2023/06/29 00:00:50;;;;;;;4.37;3.47;;;21.40;42.50;;;;;;20686;6750;288339;-76
2023/06/29 00:03:27;;;;;;;4.27;3.03;;;21.50;42.90;;;;;;20819;6778;117465;-76
2023/06/29 00:06:01;;;;;;;3.60;3.30;;;21.30;42.80;;;;;;20399;6783;278677;-76
2023/06/29 00:08:37;;;;;;;3.30;3.10;;;21.50;43.00;;;;;;20638;6763;304144;-77
2023/06/29 00:11:12;;;;;;;4.03;3.37;;;21.70;42.60;;;;;;20604;6763;283629;-76
2023/06/29 00:13:48;;;;;;;3.70;3.40;;;22.00;42.10;;;;;;20682;6748;421933;-76
2023/06/29 00:16:24;;;;;;;3.60;3.40;;;22.20;41.50;;;;;;20584;6738;279497;-76
2023/06/29 00:19:01;;;;;;;3.40;3.10;;;22.20;41.50;;;;;;20776;6720;304068;-76
2023/06/29 00:21:39;;;;;;;3.60;3.40;;;22.20;41.40;;;;;;20763;6720;303608;-80
2023/06/29 00:24:15;;;;;;;3.33;3.13;;;22.20;41.50;;;;;;20984;6720;116967;-76
2023/06/29 00:26:48;;;;;;;3.70;3.40;;;21.80;41.70;;;;;;20689;6735;305297;-76
2023/06/29 00:29:24;;;;;;;3.97;3.67;;;21.80;42.00;;;;;;20700;6731;306872;-76
2023/06/29 00:32:00;;;;;;;5.90;3.70;;;21.80;42.00;;;;;;20931;6720;123555;-76
2023/06/29 00:34:35;;;;;;;3.80;3.50;;;21.50;42.20;;;;;;20701;6720;311130;-76
2023/06/29 00:37:11;;;;;;;4.00;3.30;;;21.40;42.60;;;;;;20767;6723;309444;-77
2023/06/29 00:39:46;;;;;;;3.77;3.40;;;21.50;42.60;;;;;;20644;6742;305823;-76
2023/06/29 00:42:22;;;;;;;3.40;3.10;;;21.60;42.60;;;;;;20924;6742;117443;-76
2023/06/29 00:44:57;;;;;;;4.27;3.60;;;21.30;42.70;;;;;;20704;6727;284125;-76
2023/06/29 00:47:34;;;;;;;3.90;3.60;;;21.40;42.70;;;;;;20772;6718;303986;-76
2023/06/29 00:50:09;;;;;;;4.60;3.37;;;21.40;42.70;;;;;;20904;6744;117022;-76
2023/06/29 00:52:45;;;;;;;3.33;3.00;;;21.10;42.80;;;;;;20902;6751;117471;-76
2023/06/29 00:55:23;;;;;;;3.23;2.97;;;20.40;43.80;;;;;;20809;6738;116910;-76
2023/06/29 00:58:02;;;;;;;3.80;3.50;;;20.40;43.80;;;;;;20689;6742;307425;-77
2023/06/29 01:00:34;;;;;;;3.37;3.17;;;20.60;44.40;;;;;;20906;6746;117406;-76
2023/06/29 01:03:11;;;;;;;3.30;3.00;;;20.50;44.10;;;;;;20861;6746;123228;-77
2023/06/29 01:05:46;;;;;;;3.83;3.53;;;20.20;44.30;;;;;;20386;6782;309699;-76
2023/06/29 01:08:21;;;;;;;3.70;3.40;;;20.40;44.70;;;;;;20850;6769;117210;-76
2023/06/29 01:10:56;;;;;;;3.30;3.10;;;20.40;44.50;;;;;;20849;6753;120682;-76
2023/06/29 01:13:32;;;;;;;3.73;3.47;;;20.10;44.60;;;;;;20781;6762;116974;-77
2023/06/29 01:16:08;;;;;;;3.27;3.00;;;19.80;45.00;;;;;;20609;6781;118861;-76
2023/06/29 01:18:44;;;;;;;3.47;3.20;;;19.80;45.00;;;;;;20889;6737;122633;-76
2023/06/29 01:21:19;;;;;;;3.40;3.20;;;19.70;45.20;;;;;;20885;6746;116889;-76
2023/06/29 01:23:55;;;;;;;3.90;3.50;;;19.60;45.40;;;;;;20882;6746;119019;-76
2023/06/29 01:26:30;;;;;;;3.40;3.20;;;19.50;45.60;;;;;;20583;6837;120093;-76
2023/06/29 01:29:06;;;;;;;3.90;3.60;;;19.40;45.90;;;;;;20686;6750;276663;-76
2023/06/29 01:31:44;;;;;;;3.97;3.67;;;19.80;46.90;;;;;;20641;6746;306566;-76
2023/06/29 01:34:17;;;;;;;4.03;3.57;;;20.20;46.10;;;;;;20828;6768;117028;-76
2023/06/29 01:36:53;;;;;;;4.20;3.90;;;20.10;45.80;;;;;;20703;6742;305713;-76
2023/06/29 01:39:29;;;;;;;3.47;3.17;;;20.30;46.60;;;;;;20872;6757;116068;-76
2023/06/29 01:42:06;;;;;;;4.15;3.85;;;20.20;45.70;;;;;;20735;6732;299867;-76
2023/06/29 01:44:41;;;;;;;6.43;3.60;;;20.20;46.20;;;;;;20850;6747;117816;-76
2023/06/29 01:47:17;;;;;;;3.90;3.60;;;20.20;45.90;;;;;;20925;6736;118943;-76
2023/06/29 01:49:53;;;;;;;3.97;3.67;;;19.90;46.10;;;;;;20820;6747;123257;-76
2023/06/29 01:52:28;;;;;;;4.78;4.37;;;19.70;46.30;;;;;;20535;6777;307756;-76
2023/06/29 01:55:04;;;;;;;4.20;3.90;;;20.00;46.80;;;;;;20814;6751;124266;-76
2023/06/29 01:57:40;;;;;;;4.30;4.00;;;19.90;46.50;;;;;;20768;6758;271377;-76
2023/06/29 02:00:16;;;;;;;4.97;4.53;;;19.70;46.60;;;;;;20529;6783;306243;-76
2023/06/29 02:02:52;;;;;;;4.00;3.80;;;19.80;47.10;;;;;;20858;6750;117433;-76
2023/06/29 02:05:28;;;;;;;4.50;4.10;;;19.80;46.60;;;;;;20518;6751;308141;-76
2023/06/29 02:08:03;;;;;;;4.10;3.53;;;19.90;46.70;;;;;;20831;6754;117708;-76
2023/06/29 02:10:39;;;;;;;3.80;3.60;;;19.90;46.70;;;;;;20860;6747;118064;-76
2023/06/29 02:13:15;;;;;;;4.10;3.78;;;19.70;47.20;;;;;;20599;6762;302752;-76
2023/06/29 02:15:51;;;;;;;4.23;4.00;;;19.80;47.30;;;;;;20758;6744;117828;-76
2023/06/29 02:18:26;;;;;;;4.40;4.10;;;19.70;46.90;;;;;;20902;6744;118188;-76
2023/06/29 02:21:02;;;;;;;4.67;4.17;;;19.50;47.00;;;;;;20700;6744;315964;-76
2023/06/29 02:23:38;;;;;;;3.93;3.57;;;19.70;47.10;;;;;;20837;6744;119192;-77
2023/06/29 02:26:13;;;;;;;4.03;3.73;;;19.60;46.80;;;;;;20542;6744;308323;-76
2023/06/29 02:28:52;;;;;;;3.83;3.53;;;19.80;46.80;;;;;;20902;6744;122974;-77
2023/06/29 02:31:24;;;;;;;3.97;3.67;;;19.70;46.60;;;;;;20852;6759;120628;-77
2023/06/29 02:34:00;;;;;;;3.70;3.40;;;19.50;46.80;;;;;;20577;6759;309977;-76
2023/06/29 02:36:37;;;;;;;3.17;2.97;;;19.70;46.70;;;;;;20724;6800;118565;-77
2023/06/29 02:39:13;;;;;;;4.77;3.43;;;19.40;46.70;;;;;;20873;6759;116871;-77
2023/06/29 02:41:49;;;;;;;3.80;3.50;;;19.40;46.70;;;;;;20584;6758;291133;-77
2023/06/29 02:44:25;;;;;;;3.80;3.60;;;19.60;46.90;;;;;;20890;6743;121003;-76
2023/06/29 02:47:00;;;;;;;4.40;4.00;;;19.60;46.60;;;;;;20889;6751;120029;-76
2023/06/29 02:49:36;;;;;;;4.33;4.03;;;19.30;46.60;;;;;;20678;6751;281337;-82
2023/06/29 02:52:11;;;;;;;4.30;4.00;;;19.50;47.20;;;;;;20645;6755;299246;-77
2023/06/29 02:54:47;;;;;;;4.37;3.97;;;19.90;46.60;;;;;;20588;6755;283681;-77
2023/06/29 02:57:23;;;;;;;3.90;3.60;;;19.90;46.20;;;;;;20958;6723;115759;-76
2023/06/29 02:59:59;;;;;;;4.23;3.90;;;19.90;46.10;;;;;;20671;6742;306842;-76
2023/06/29 03:02:34;;;;;;;4.10;3.90;;;19.90;46.40;;;;;;20885;6751;116739;-76
2023/06/29 03:05:10;;;;;;;4.33;3.93;;;19.70;46.40;;;;;;20780;6741;116956;-76
2023/06/29 03:07:46;;;;;;;3.97;3.67;;;19.10;47.80;;;;;;20931;6726;117142;-76
2023/06/29 03:10:22;;;;;;;3.83;3.40;;;19.10;47.10;;;;;;20877;6741;116746;-77
2023/06/29 03:12:57;;;;;;;4.33;4.03;;;18.90;47.40;;;;;;20652;6746;305885;-76
2023/06/29 03:15:33;;;;;;;4.27;3.97;;;19.20;47.70;;;;;;20483;6761;302664;-77
2023/06/29 03:18:08;;;;;;;4.17;3.87;;;19.50;46.80;;;;;;20693;6745;299381;-77
2023/06/29 03:20:44;;;;;;;3.93;3.73;;;19.80;46.50;;;;;;20814;6756;116215;-77
2023/06/29 03:23:20;;;;;;;4.37;4.13;;;19.60;46.50;;;;;;20710;6741;305432;-77
2023/06/29 03:25:56;;;;;;;4.50;4.20;;;19.80;46.80;;;;;;20490;6762;283350;-77
2023/06/29 03:28:31;;;;;;;4.73;3.83;;;19.80;46.20;;;;;;20802;6756;117220;-78
2023/06/29 03:31:07;;;;;;;4.07;3.77;;;19.60;46.30;;;;;;20840;6762;117512;-77
2023/06/29 03:33:43;;;;;;;4.37;4.07;;;19.30;46.80;;;;;;20871;6745;119320;-76
2023/06/29 03:36:19;;;;;;;4.20;4.00;;;19.00;47.20;;;;;;20564;6741;300309;-77
2023/06/29 03:38:54;;;;;;;4.20;3.90;;;19.20;47.50;;;;;;20726;6730;315781;-76
2023/06/29 03:41:29;;;;;;;4.23;3.83;;;19.60;47.10;;;;;;20870;6756;116870;-76
2023/06/29 03:44:06;;;;;;;3.87;3.60;;;19.30;47.20;;;;;;20843;6759;118686;-75
2023/06/29 03:46:41;;;;;;;4.70;4.30;;;19.20;47.10;;;;;;20654;6759;305690;-78
2023/06/29 03:49:17;;;;;;;3.57;3.37;;;19.40;47.20;;;;;;20880;6739;119827;-82
2023/06/29 03:51:52;;;;;;;4.10;3.80;;;19.40;47.10;;;;;;20615;6753;308316;-78
2023/06/29 03:54:28;;;;;;;3.73;3.43;;;19.50;47.40;;;;;;20827;6753;117388;-79
2023/06/29 03:57:04;;;;;;;4.03;3.53;;;19.40;47.30;;;;;;20782;6769;116952;-78
2023/06/29 03:59:39;;;;;;;4.45;4.15;;;19.10;47.40;;;;;;20583;6767;335234;-80
2023/06/29 04:02:15;;;;;;;4.37;3.97;;;19.30;48.00;;;;;;20754;6781;117406;-80
2023/06/29 04:04:50;;;;;;;4.30;4.00;;;19.30;47.80;;;;;;20768;6770;116542;-79
2023/06/29 04:07:26;;;;;;;7.40;3.77;;;19.00;48.00;;;;;;20877;6767;117217;-80
2023/06/29 04:10:03;;;;;;;4.32;4.03;;;19.00;48.50;;;;;;20583;6760;304651;-80
2023/06/29 04:12:39;;;;;;;4.17;3.90;;;19.00;48.50;;;;;;20704;6726;278948;-79
2023/06/29 04:15:14;;;;;;;4.50;4.20;;;19.30;47.70;;;;;;20540;6748;293912;-81
2023/06/29 04:17:50;;;;;;;4.40;4.10;;;19.60;47.20;;;;;;20881;6733;120245;-81
2023/06/29 04:20:26;;;;;;;4.07;3.77;;;19.40;47.20;;;;;;20839;6750;120847;-79
2023/06/29 04:23:11;;;;;;;;;;;;;;;;;;;;;
2023/06/29 04:25:37;;;;;;;3.90;3.63;;;18.80;48.00;;;;;;20746;6742;117641;-79
2023/06/29 04:28:12;;;;;;;4.30;4.00;;;18.60;48.30;;;;;;20874;6744;117178;-79
2023/06/29 04:30:50;;;;;;;4.07;3.77;;;18.50;48.60;;;;;;20807;6758;117092;-82
2023/06/29 04:33:26;;;;;;;4.17;3.87;;;18.40;48.80;;;;;;20838;6759;117895;-82
2023/06/29 04:36:01;;;;;;;4.75;4.37;;;18.30;49.00;;;;;;20443;6752;307767;-77
2023/06/29 04:38:37;;;;;;;4.70;4.37;;;18.60;49.40;;;;;;20678;6736;311434;-83
2023/06/29 04:41:15;;;;;;;4.47;4.17;;;19.10;49.10;;;;;;20810;6766;120880;-83
2023/06/29 04:43:57;;;;;;;5.17;3.97;;;18.90;48.10;;;;;;20839;6750;118011;-80
2023/06/29 04:46:30;;;;;;;4.87;4.50;;;18.90;48.60;;;;;;20671;6760;117805;-80
2023/06/29 04:49:05;;;;;;;4.60;4.20;;;18.70;48.90;;;;;;20802;6751;117061;-82
2023/06/29 04:51:38;;;;;;;4.30;4.00;;;18.60;49.10;;;;;;20845;6777;117612;-80
2023/06/29 04:54:14;;;;;;;4.87;4.57;;;18.90;49.60;;;;;;20669;6756;307689;-83
2023/06/29 04:56:50;;;;;;;4.50;4.10;;;18.90;49.50;;;;;;20848;6772;117184;-80
2023/06/29 04:59:25;;;;;;;4.03;3.83;;;19.00;49.10;;;;;;20929;6735;116895;-80
2023/06/29 05:02:01;;;;;;;4.80;4.50;;;18.90;49.10;;;;;;20469;6805;306792;-83
2023/06/29 05:04:40;;;;;;;5.13;4.73;;;19.20;48.80;;;;;;20619;6758;308473;-81
2023/06/29 05:07:17;;;;;;;4.70;4.40;;;19.70;48.10;;;;;;20803;6814;121115;-82
2023/06/29 05:09:52;;;;;;;5.32;4.82;;;19.70;47.90;;;;;;20570;6823;306975;-83
2023/06/29 05:12:28;;;;;;;5.77;4.27;;;19.80;47.80;;;;;;20847;6760;123562;-86
2023/06/29 05:15:04;;;;;;;4.57;4.30;;;19.70;47.70;;;;;;20835;6753;119122;-85
2023/06/29 05:17:39;;;;;;;5.32;4.82;;;19.50;48.00;;;;;;20714;6726;305545;-81
2023/06/29 05:20:17;;;;;;;5.20;4.70;;;19.70;48.20;;;;;;20696;6740;305441;-86
2023/06/29 05:22:51;;;;;;;5.20;4.80;;;20.10;47.60;;;;;;20685;6740;311178;-82
2023/06/29 05:25:28;;;;;;;4.30;4.10;;;20.20;47.30;;;;;;20785;6734;116162;-82
2023/06/29 05:28:03;;;;;;;4.80;4.50;;;20.20;47.20;;;;;;20861;6738;116274;-84
2023/06/29 05:30:39;;;;;;;4.63;4.30;;;20.00;47.70;;;;;;20905;6734;116883;-81
2023/06/29 05:33:15;;;;;;;4.43;4.10;;;19.80;48.10;;;;;;20889;6749;117101;-79
2023/06/29 05:35:50;;;;;;;3.67;3.47;;;19.70;48.40;;;;;;20769;6752;117392;-79
2023/06/29 05:38:29;;;;;;;4.15;3.90;;;19.60;48.70;;;;;;20743;6735;283294;-80
2023/06/29 05:41:01;;;;;;;4.10;3.80;;;20.00;48.40;;;;;;20762;6720;303794;-78
2023/06/29 05:43:37;;;;;;;4.40;4.10;;;20.70;47.20;;;;;;20758;6728;305726;-78
2023/06/29 05:46:12;;;;;;;4.85;4.30;;;21.30;46.10;;;;;;20546;6729;311699;-81
2023/06/29 05:48:49;;;;;;;4.90;3.73;;;21.70;45.40;;;;;;20917;6740;120803;-76
2023/06/29 05:51:24;;;;;;;4.43;4.13;;;21.60;45.30;;;;;;20726;6736;279846;-77
2023/06/29 05:54:00;;;;;;;6.17;4.63;;;21.80;44.90;;;;;;20917;6737;117143;-74
2023/06/29 05:56:35;;;;;;;4.73;4.27;;;21.80;45.10;;;;;;20702;6798;117423;-75
2023/06/29 05:59:13;;;;;;;4.57;4.17;;;21.60;45.40;;;;;;20928;6726;122855;-75
2023/06/29 06:01:49;;;;;;;4.67;4.27;;;21.40;45.60;;;;;;20790;6722;304531;-75
2023/06/29 06:04:24;;;;;;;5.37;4.37;;;21.80;44.90;;;;;;20983;6707;116654;-75
2023/06/29 06:07:02;;;;;;;5.78;4.20;;;22.30;44.30;;;;;;20755;6722;304627;-75
2023/06/29 06:09:37;;;;;;;5.47;3.87;;;22.30;44.20;;;;;;20964;6738;117133;-75
2023/06/29 06:12:13;;;;;;;4.10;3.90;;;22.30;44.50;;;;;;21022;6708;120924;-75
2023/06/29 06:14:49;;;;;;;4.63;4.33;;;22.50;45.10;;;;;;20709;6717;300094;-75
2023/06/29 06:17:24;;;;;;;4.10;3.90;;;23.20;43.30;;;;;;20928;6740;116938;-75
2023/06/29 06:20:00;;;;;;;3.40;3.10;;;23.80;43.60;;;;;;20882;6746;116933;-75
2023/06/29 06:22:35;;;;;;;3.13;3.03;;;24.40;43.60;;;;;;20932;6740;116797;-75
2023/06/29 06:25:20;;;;;;;4.17;3.60;;;25.00;43.20;;;;;;20641;6741;277707;-75
2023/06/29 06:27:46;;;;;;;3.40;3.20;;;26.00;39.00;;;;;;20792;6761;117517;-75
2023/06/29 06:30:23;;;;;;;4.73;3.23;;;26.70;39.10;;;;;;20861;6747;119412;-75
2023/06/29 06:33:01;;;;;;;3.50;3.20;;;27.20;39.00;;;;;;20700;6738;304521;-76
2023/06/29 06:35:33;;;;;;;3.60;3.30;;;27.90;35.40;;;;;;20629;6734;276968;-76
2023/06/29 06:38:09;;;;;;;3.37;3.17;;;28.90;33.90;;;;;;20922;6737;117007;-75
2023/06/29 06:40:45;;;;;;;3.17;2.87;;;29.20;34.40;;;;;;20930;6737;123014;-75
2023/06/29 06:43:20;;;;;;;3.13;2.90;;;29.40;34.90;;;;;;20909;6737;116929;-75
2023/06/29 06:45:55;;;;;;;3.90;3.60;;;29.50;34.80;;;;;;20499;6752;282110;-75
2023/06/29 06:48:32;;;;;;;3.57;3.27;;;30.70;31.30;;;;;;20634;6765;310967;-74
2023/06/29 06:51:07;;;;;;;3.60;3.17;;;30.60;31.20;;;;;;20624;6743;307069;-76
2023/06/29 06:53:45;;;;;;;3.33;3.00;;;31.80;30.00;;;;;;20635;6746;276799;-75
2023/06/29 06:56:22;;;;;;;2.80;2.60;;;31.80;30.00;;;;;;20684;6742;117779;-75
2023/06/29 06:58:56;;;;;;;3.50;3.00;;;31.80;30.50;;;;;;20660;6746;276439;-75
2023/06/29 07:01:32;;;;;;;3.33;3.10;;;32.10;29.60;;;;;;20631;6742;306285;-77
2023/06/29 07:04:07;;;;;;;8.77;3.10;;;32.50;29.10;;;;;;20786;6769;117484;-75
2023/06/29 07:06:46;;;;;;;2.70;2.50;;;32.70;28.70;;;;;;20746;6726;308749;-76
2023/06/29 07:09:24;;;;;;;3.83;3.10;;;32.70;28.70;;;;;;20746;6726;340260;-75
2023/06/29 07:12:00;;;;;;;3.83;3.17;;;33.10;28.40;;;;;;20810;6757;117737;-75
2023/06/29 07:14:40;;;;;;;3.23;3.03;;;32.90;28.80;;;;;;20538;6776;309413;-75
2023/06/29 07:17:17;;;;;;;4.00;3.00;;;32.50;28.60;;;;;;20792;6780;118217;-78
2023/06/29 07:19:53;;;;;;;3.03;2.83;;;32.40;28.50;;;;;;20599;6756;344983;-76
2023/06/29 07:22:28;;;;;;;3.33;2.70;;;32.40;28.30;;;;;;20812;6753;117068;-77
2023/06/29 07:25:04;;;;;;;4.13;2.97;;;32.30;29.00;;;;;;20830;6749;119779;-77
2023/06/29 07:27:42;;;;;;;2.97;2.78;;;32.00;29.20;;;;;;20541;6775;336084;-77
2023/06/29 07:30:17;;;;;;;3.23;2.80;;;32.10;28.50;;;;;;20880;6752;119186;-76
2023/06/29 07:32:53;;;;;;;2.97;2.50;;;32.00;28.80;;;;;;20656;6758;306214;-76
2023/06/29 07:35:29;;;;;;;2.87;2.50;;;32.20;28.70;;;;;;20756;6782;117556;-76
2023/06/29 07:38:05;;;;;;;4.23;2.60;;;32.10;28.70;;;;;;20703;6737;306403;-75
2023/06/29 07:40:40;;;;;;;3.97;2.70;;;32.20;28.50;;;;;;20674;6746;305624;-75
2023/06/29 07:43:16;;;;;;;2.67;2.47;;;32.40;27.90;;;;;;20908;6761;116970;-75
2023/06/29 07:45:51;;;;;;;4.63;2.57;;;32.40;28.30;;;;;;20772;6738;117815;-74
2023/06/29 07:48:30;;;;;;;2.80;2.30;;;32.00;28.60;;;;;;20922;6743;117283;-76
2023/06/29 07:51:06;;;;;;;3.13;2.83;;;31.70;29.00;;;;;;20892;6742;117247;-75
2023/06/29 07:53:41;;;;;;;3.97;2.50;;;31.40;29.10;;;;;;20825;6767;117475;-75
2023/06/29 07:56:17;;;;;;;3.73;2.60;;;31.20;29.30;;;;;;20567;6737;283436;-74
2023/06/29 07:58:52;;;;;;;3.60;2.57;;;31.40;29.00;;;;;;20635;6752;305193;-76
2023/06/29 08:01:28;;;;;;;2.70;2.50;;;31.70;28.70;;;;;;20865;6752;117041;-75
2023/06/29 08:04:04;;;;;;;3.27;2.60;;;31.50;29.10;;;;;;20743;6722;305685;-76
2023/06/29 08:06:43;;;;;;;2.53;2.33;;;31.50;29.10;;;;;;20917;6757;116945;-77
2023/06/29 08:09:15;;;;;;;3.00;2.70;;;31.50;29.10;;;;;;20851;6755;116863;-78
2023/06/29 08:11:51;;;;;;;3.00;2.50;;;31.50;28.90;;;;;;20650;6757;336473;-74
2023/06/29 08:14:28;;;;;;;3.20;2.80;;;31.50;28.90;;;;;;20685;6742;281897;-76
2023/06/29 08:17:04;;;;;;;4.30;2.60;;;31.90;28.90;;;;;;20740;6735;303622;-75
2023/06/29 08:19:41;;;;;;;2.87;2.67;;;32.20;28.60;;;;;;20707;6735;305110;-76
2023/06/29 08:22:16;;;;;;;4.50;2.72;;;32.40;28.30;;;;;;20755;6728;310193;-76
2023/06/29 08:24:52;;;;;;;2.67;2.47;;;32.50;28.10;;;;;;20825;6755;116834;-74
2023/06/29 08:27:29;;;;;;;2.53;2.30;;;32.20;28.30;;;;;;20657;6743;308872;-75
2023/06/29 08:30:06;;;;;;;3.08;2.78;;;32.20;28.70;;;;;;20766;6726;276114;-76
2023/06/29 08:32:43;;;;;;;2.78;2.53;;;32.20;28.20;;;;;;20583;6768;277360;-76
2023/06/29 08:35:17;;;;;;;2.80;2.60;;;32.30;28.10;;;;;;20513;6773;322288;-76
2023/06/29 08:37:52;;;;;;;2.87;2.53;;;32.40;27.90;;;;;;20602;6760;278923;-75
2023/06/29 08:40:28;;;;;;;2.83;2.63;;;32.40;28.00;;;;;;20637;6751;311049;-76
2023/06/29 08:43:05;;;;;;;3.10;2.80;;;32.50;27.70;;;;;;20671;6740;276584;-74
2023/06/29 08:45:40;;;;;;;3.10;2.70;;;32.70;27.40;;;;;;20827;6729;127103;-76
2023/06/29 08:48:16;;;;;;;3.57;2.57;;;32.60;27.50;;;;;;20972;6722;118021;-80
2023/06/29 08:50:52;;;;;;;3.30;2.50;;;32.40;27.50;;;;;;20733;6722;278737;-76
2023/06/29 08:53:28;;;;;;;2.67;2.30;;;32.40;27.50;;;;;;20961;6715;117330;-75
2023/06/29 08:56:04;;;;;;;2.40;2.20;;;32.20;27.70;;;;;;20803;6715;117357;-77
2023/06/29 08:58:39;;;;;;;3.83;2.47;;;31.90;28.00;;;;;;20938;6725;117996;-76
2023/06/29 09:01:15;;;;;;;3.87;2.47;;;31.90;28.30;;;;;;20905;6736;116991;-77
2023/06/29 09:03:50;;;;;;;2.60;2.40;;;32.00;28.60;;;;;;20876;6736;141944;-78
2023/06/29 09:06:27;;;;;;;3.33;2.53;;;32.70;27.90;;;;;;20499;6755;312679;-75
2023/06/29 09:09:03;;;;;;;2.60;2.50;;;32.70;27.90;;;;;;20893;6736;117458;-75
2023/06/29 09:11:39;;;;;;;2.33;2.13;;;33.10;27.50;;;;;;20911;6739;121178;-74
2023/06/29 09:14:14;;;;;;;3.20;2.40;;;33.10;26.90;;;;;;20715;6735;305003;-75
2023/06/29 09:16:53;;;;;;;2.07;1.97;;;33.30;25.30;;;;;;20886;6736;123885;-75
2023/06/29 09:19:29;;;;;;;4.13;2.00;;;33.30;25.50;;;;;;20932;6736;117345;-74
2023/06/29 09:22:04;;;;;;;5.17;2.27;;;33.20;25.80;;;;;;20833;6751;117852;-75
2023/06/29 09:24:41;;;;;;;2.50;2.13;;;33.10;26.00;;;;;;20860;6754;116876;-75
2023/06/29 09:27:15;;;;;;;4.27;2.50;;;33.00;26.00;;;;;;20946;6736;117907;-76
2023/06/29 09:29:51;;;;;;;3.20;2.40;;;32.90;26.20;;;;;;20824;6751;117409;-74
2023/06/29 09:32:30;;;;;;;2.50;2.28;;;32.90;26.10;;;;;;20682;6752;304299;-75
2023/06/29 09:35:06;;;;;;;3.30;2.30;;;33.10;26.40;;;;;;20828;6738;117051;-75
2023/06/29 09:37:42;;;;;;;3.63;2.30;;;33.30;26.60;;;;;;20865;6737;121324;-74
2023/06/29 09:40:17;;;;;;;4.43;2.50;;;33.30;26.20;;;;;;20766;6723;305968;-76
2023/06/29 09:42:54;;;;;;;2.53;2.33;;;33.60;25.00;;;;;;20940;6737;116958;-76
2023/06/29 09:45:29;;;;;;;2.17;1.97;;;33.70;25.30;;;;;;20843;6737;116967;-76
2023/06/29 09:48:10;;;;;;;2.90;2.40;;;33.70;25.40;;;;;;20727;6732;293084;-75
2023/06/29 09:50:41;;;;;;;3.50;2.10;;;33.70;25.40;;;;;;20990;6722;117239;-77
2023/06/29 09:53:17;;;;;;;2.50;2.30;;;33.60;25.50;;;;;;20747;6734;284472;-76
2023/06/29 09:55:53;;;;;;;4.60;2.50;;;33.80;25.60;;;;;;20550;6741;305894;-73
2023/06/29 09:58:29;;;;;;;2.53;2.30;;;33.80;25.60;;;;;;20959;6732;116800;-73
2023/06/29 10:01:04;;;;;;;3.85;2.37;;;33.90;25.50;;;;;;20988;6722;117668;-72
2023/06/29 10:03:42;;;;;;;3.65;2.65;;;33.70;24.20;;;;;;20701;6736;335371;-76
2023/06/29 10:06:21;;;;;;;4.33;2.70;;;33.70;24.60;;;;;;20592;6732;305543;-76
2023/06/29 10:08:58;;;;;;;2.70;2.50;;;34.40;25.50;;;;;;20698;6743;304056;-77
2023/06/29 10:11:32;;;;;;;3.93;2.60;;;34.30;24.90;;;;;;20857;6758;116748;-76
2023/06/29 10:14:09;;;;;;;2.67;2.47;;;34.30;25.00;;;;;;20861;6743;119195;-76
2023/06/29 10:16:45;;;;;;;3.60;2.33;;;34.00;25.10;;;;;;20867;6747;117231;-75
2023/06/29 10:19:21;;;;;;;3.30;2.50;;;33.70;25.50;;;;;;20654;6762;275569;-75
2023/06/29 10:21:57;;;;;;;4.80;2.60;;;33.60;25.50;;;;;;20681;6744;333381;-75
2023/06/29 10:24:33;;;;;;;6.13;2.43;;;33.90;25.60;;;;;;20862;6732;117371;-75
2023/06/29 10:27:08;;;;;;;5.20;2.70;;;33.70;25.90;;;;;;20511;6792;322364;-81
2023/06/29 10:29:46;;;;;;;5.33;2.83;;;33.90;26.20;;;;;;20922;6722;117519;-79
2023/06/29 10:32:38;;;;;;;3.00;2.70;;;33.90;25.90;;;;;;20905;6728;117005;-80
2023/06/29 10:35:14;;;;;;;3.13;2.80;;;33.80;25.60;;;;;;20802;6744;117404;-79
2023/06/29 10:37:50;;;;;;;3.20;3.00;;;33.70;25.80;;;;;;20859;6737;117210;-80
2023/06/29 10:40:28;;;;;;;3.43;3.13;;;33.90;26.30;;;;;;20672;6740;306373;-79
2023/06/29 10:43:03;;;;;;;2.80;2.60;;;33.90;26.30;;;;;;20902;6737;120171;-77
2023/06/29 10:45:38;;;;;;;3.45;3.15;;;34.10;26.20;;;;;;20512;6764;333034;-79
2023/06/29 10:48:14;;;;;;;3.87;2.80;;;34.70;24.70;;;;;;20683;6736;303969;-78
2023/06/29 10:50:51;;;;;;;4.12;3.20;;;34.70;24.70;;;;;;20592;6764;336940;-77
2023/06/29 10:53:43;;;;;;;;;;;;;;;;;;;;;
2023/06/29 10:56:03;;;;;;;3.07;2.87;;;34.80;24.90;;;;;;20659;6808;121484;-81
2023/06/29 10:58:40;;;;;;;3.47;3.17;;;34.60;24.90;;;;;;20677;6784;305032;-74
2023/06/29 11:01:16;;;;;;;4.60;3.80;;;34.50;24.80;;;;;;20666;6741;276697;-74
2023/06/29 11:03:51;;;;;;;4.10;3.47;;;34.80;25.00;;;;;;20576;6763;310668;-75
2023/06/29 11:06:25;;;;;;;4.00;3.70;;;34.80;25.00;;;;;;20727;6759;117301;-74
2023/06/29 11:09:01;;;;;;;4.13;3.70;;;34.80;25.20;;;;;;20713;6730;276753;-75
2023/06/29 11:11:37;;;;;;;7.30;3.60;;;34.80;24.70;;;;;;20852;6730;121039;-75
2023/06/29 11:14:16;;;;;;;5.63;3.50;;;34.80;25.90;;;;;;20754;6715;276547;-79
2023/06/29 11:16:49;;;;;;;3.40;3.20;;;34.80;25.60;;;;;;20956;6727;116303;-76
2023/06/29 11:19:25;;;;;;;4.73;3.00;;;34.60;25.60;;;;;;20912;6727;120495;-77
2023/06/29 11:22:02;;;;;;;4.00;3.60;;;34.50;25.50;;;;;;20900;6742;118638;-75
2023/06/29 11:24:40;;;;;;;4.00;3.67;;;34.10;25.90;;;;;;20788;6757;117138;-77
2023/06/29 11:27:16;;;;;;;3.50;3.30;;;34.00;25.80;;;;;;20812;6814;117136;-77
2023/06/29 11:29:54;;;;;;;5.30;3.57;;;33.90;26.20;;;;;;20864;6757;119734;-78
2023/06/29 11:32:30;;;;;;;4.12;3.75;;;33.80;26.30;;;;;;20667;6757;306696;-77
2023/06/29 11:35:06;;;;;;;4.07;3.57;;;33.90;25.60;;;;;;20834;6751;116982;-77
2023/06/29 11:37:41;;;;;;;4.23;3.83;;;33.90;25.60;;;;;;20946;6730;122760;-77
2023/06/29 11:40:20;;;;;;;3.93;3.53;;;33.70;26.10;;;;;;20828;6757;117719;-78
2023/06/29 11:42:57;;;;;;;4.03;3.73;;;33.70;26.20;;;;;;20830;6760;119755;-77
2023/06/29 11:45:33;;;;;;;4.50;4.10;;;33.50;26.40;;;;;;20611;6741;282354;-77
2023/06/29 11:48:11;;;;;;;4.30;4.00;;;33.90;25.80;;;;;;20603;6757;277217;-78
2023/06/29 11:50:44;;;;;;;5.93;4.35;;;33.90;25.80;;;;;;20607;6760;310943;-78
2023/06/29 11:53:20;;;;;;;4.50;3.87;;;34.20;26.10;;;;;;20691;6751;307209;-76
2023/06/29 11:55:55;;;;;;;4.65;4.20;;;34.30;25.30;;;;;;20540;6760;312579;-78
2023/06/29 11:58:31;;;;;;;4.33;3.97;;;34.50;25.30;;;;;;20917;6730;117056;-78
2023/06/29 12:01:07;;;;;;;4.50;4.20;;;34.40;25.50;;;;;;20714;6742;276240;-76
2023/06/29 12:03:42;;;;;;;4.30;4.00;;;34.60;25.10;;;;;;20662;6742;311148;-78
2023/06/29 12:06:18;;;;;;;5.53;4.07;;;34.80;25.10;;;;;;20710;6760;118071;-78
2023/06/29 12:08:53;;;;;;;4.70;4.30;;;34.60;25.00;;;;;;20803;6715;304042;-78
2023/06/29 12:11:29;;;;;;;4.40;4.10;;;34.50;24.60;;;;;;20924;6730;117277;-76
2023/06/29 12:14:06;;;;;;;4.67;4.20;;;34.10;25.50;;;;;;20944;6729;120548;-76
2023/06/29 12:16:41;;;;;;;4.75;4.30;;;34.10;25.30;;;;;;20617;6757;298354;-78
2023/06/29 12:19:16;;;;;;;4.47;4.10;;;34.10;25.80;;;;;;20865;6744;116876;-77
2023/06/29 12:21:52;;;;;;;4.33;3.97;;;33.90;25.80;;;;;;20911;6740;175166;-77
2023/06/29 12:24:28;;;;;;;4.53;4.07;;;33.60;25.80;;;;;;20616;6755;278602;-77
2023/06/29 12:27:07;;;;;;;4.10;3.80;;;33.20;26.00;;;;;;20960;6732;118002;-78
2023/06/29 12:29:40;;;;;;;5.77;4.63;;;33.20;26.00;;;;;;20598;6760;277699;-80
2023/06/29 12:32:15;;;;;;;3.97;3.67;;;33.20;26.30;;;;;;20876;6759;123339;-78
2023/06/29 12:34:54;;;;;;;4.67;4.20;;;33.10;27.20;;;;;;20687;6740;282863;-79
2023/06/29 12:37:27;;;;;;;5.47;4.45;;;33.10;27.20;;;;;;20714;6730;321979;-79
2023/06/29 12:40:04;;;;;;;4.67;4.20;;;33.30;27.50;;;;;;20718;6730;305491;-79
2023/06/29 12:42:38;;;;;;;5.97;4.67;;;33.60;27.20;;;;;;20665;6759;305718;-78
2023/06/29 12:45:14;;;;;;;4.50;4.10;;;33.90;26.70;;;;;;20752;6760;120933;-79
2023/06/29 12:47:59;;;;;;;4.90;4.60;;;33.90;26.50;;;;;;20933;6772;121197;-79
2023/06/29 12:50:25;;;;;;;5.17;4.70;;;33.70;26.30;;;;;;20971;6745;121381;-77
2023/06/29 12:53:01;;;;;;;4.73;4.33;;;33.60;25.90;;;;;;20679;6756;276437;-79
2023/06/29 12:55:37;;;;;;;4.90;4.50;;;33.60;25.90;;;;;;20622;6741;336832;-78
2023/06/29 12:58:14;;;;;;;5.20;4.53;;;33.90;26.30;;;;;;20802;6715;337229;-79
2023/06/29 13:00:52;;;;;;;4.57;4.17;;;34.20;26.20;;;;;;21028;6715;116928;-77
2023/06/29 13:03:26;;;;;;;5.70;4.87;;;34.20;26.10;;;;;;20957;6771;117973;-79
2023/06/29 13:06:05;;;;;;;4.80;4.30;;;34.00;26.20;;;;;;20762;6730;119100;-78
2023/06/29 13:08:38;;;;;;;5.90;4.97;;;33.90;26.20;;;;;;20884;6757;116937;-77
2023/06/29 13:11:19;;;;;;;5.40;4.93;;;33.80;26.10;;;;;;20685;6742;280651;-79
2023/06/29 13:13:49;;;;;;;5.40;4.90;;;34.00;25.40;;;;;;20678;6737;295833;-79
2023/06/29 13:16:24;;;;;;;6.15;5.55;;;34.40;25.80;;;;;;20567;6745;337112;-79
2023/06/29 13:19:00;;;;;;;5.57;5.07;;;34.60;25.10;;;;;;20875;6742;117657;-81
2023/06/29 13:21:36;;;;;;;6.40;5.13;;;34.40;25.20;;;;;;20798;6763;117582;-82